sensor_id;sensor_type;location;lat;lon;timestamp;temperature;humidity
1411;DHT22;700;51.906;8.404;2023-08-17T00:00:21;22.40;99.90
1411;DHT22;700;51.906;8.404;2023-08-17T00:05:24;22.50;99.90
1411;DHT22;700;51.906;8.404;2023-08-17T00:10:25;22.30;99.90
1411;DHT22;700;51.906;8.404;2023-08-17T00:15:25;22.00;99.90
1411;DHT22;700;51.906;8.404;2023-08-17T00:20:29;21.80;99.90
1411;DHT22;700;51.906;8.404;2023-08-17T00:25:29;21.70;99.90
1411;DHT22;700;51.906;8.404;2023-08-17T00:30:30;21.50;99.90
1411;DHT22;700;51.906;8.404;2023-08-17T00:35:31;21.40;99.90
1411;DHT22;700;51.906;8.404;2023-08-17T00:40:31;21.40;99.90
1411;DHT22;700;51.906;8.404;2023-08-17T00:45:35;21.30;99.90
1411;DHT22;700;51.906;8.404;2023-08-17T00:50:36;21.20;99.90
1411;DHT22;700;51.906;8.404;2023-08-17T00:55:38;21.30;99.90
1411;DHT22;700;51.906;8.404;2023-08-17T01:00:38;21.30;99.90
1411;DHT22;700;51.906;8.404;2023-08-17T01:05:39;21.30;99.90
1411;DHT22;700;51.906;8.404;2023-08-17T01:10:47;21.30;99.90
1411;DHT22;700;51.906;8.404;2023-08-17T01:15:57;21.20;99.90
1411;DHT22;700;51.906;8.404;2023-08-17T01:21:02;21.20;99.90
1411;DHT22;700;51.906;8.404;2023-08-17T01:26:07;21.20;99.90
1411;DHT22;700;51.906;8.404;2023-08-17T01:31:30;21.10;99.90
1411;DHT22;700;51.906;8.404;2023-08-17T01:36:42;21.10;99.90
1411;DHT22;700;51.906;8.404;2023-08-17T01:41:46;21.00;99.90
1411;DHT22;700;51.906;8.404;2023-08-17T01:46:49;20.70;99.90
1411;DHT22;700;51.906;8.404;2023-08-17T01:51:52;20.80;99.90
1411;DHT22;700;51.906;8.404;2023-08-17T01:56:55;20.90;99.90
1411;DHT22;700;51.906;8.404;2023-08-17T02:01:56;20.90;99.90
1411;DHT22;700;51.906;8.404;2023-08-17T02:06:56;20.90;99.90
1411;DHT22;700;51.906;8.404;2023-08-17T02:12:02;20.90;99.90
1411;DHT22;700;51.906;8.404;2023-08-17T02:17:05;20.90;99.90
1411;DHT22;700;51.906;8.404;2023-08-17T02:22:05;20.80;99.90
1411;DHT22;700;51.906;8.404;2023-08-17T02:27:07;20.90;99.90
1411;DHT22;700;51.906;8.404;2023-08-17T02:32:13;20.80;99.90
1411;DHT22;700;51.906;8.404;2023-08-17T02:37:13;20.70;99.90
1411;DHT22;700;51.906;8.404;2023-08-17T02:42:14;20.70;99.90
1411;DHT22;700;51.906;8.404;2023-08-17T02:47:17;20.60;99.90
1411;DHT22;700;51.906;8.404;2023-08-17T02:52:18;20.60;99.90
1411;DHT22;700;51.906;8.404;2023-08-17T02:57:21;20.60;99.90
1411;DHT22;700;51.906;8.404;2023-08-17T03:02:23;20.60;99.90
1411;DHT22;700;51.906;8.404;2023-08-17T03:07:26;20.70;99.90
1411;DHT22;700;51.906;8.404;2023-08-17T03:12:27;20.70;99.90
1411;DHT22;700;51.906;8.404;2023-08-17T03:17:30;20.60;99.90
1411;DHT22;700;51.906;8.404;2023-08-17T03:22:30;20.50;99.90
1411;DHT22;700;51.906;8.404;2023-08-17T03:27:31;20.60;99.90
1411;DHT22;700;51.906;8.404;2023-08-17T03:32:34;20.50;99.90
1411;DHT22;700;51.906;8.404;2023-08-17T03:37:35;20.50;99.90
1411;DHT22;700;51.906;8.404;2023-08-17T03:42:38;20.20;99.90
1411;DHT22;700;51.906;8.404;2023-08-17T03:47:41;20.30;99.90
1411;DHT22;700;51.906;8.404;2023-08-17T04:02:43;20.30;99.90
1411;DHT22;700;51.906;8.404;2023-08-17T04:07:45;20.40;99.90
1411;DHT22;700;51.906;8.404;2023-08-17T04:12:47;20.40;99.90
1411;DHT22;700;51.906;8.404;2023-08-17T04:17:50;20.50;99.90
1411;DHT22;700;51.906;8.404;2023-08-17T04:22:51;20.50;99.90
1411;DHT22;700;51.906;8.404;2023-08-17T04:27:52;20.40;99.90
1411;DHT22;700;51.906;8.404;2023-08-17T04:32:52;20.50;99.90
1411;DHT22;700;51.906;8.404;2023-08-17T04:37:53;20.50;99.90
1411;DHT22;700;51.906;8.404;2023-08-17T04:42:58;20.60;99.90
1411;DHT22;700;51.906;8.404;2023-08-17T04:48:01;20.70;99.90
1411;DHT22;700;51.906;8.404;2023-08-17T04:53:02;20.70;99.90
1411;DHT22;700;51.906;8.404;2023-08-17T04:58:03;20.70;99.90
1411;DHT22;700;51.906;8.404;2023-08-17T05:03:06;20.70;99.90
1411;DHT22;700;51.906;8.404;2023-08-17T05:08:07;20.70;99.90
1411;DHT22;700;51.906;8.404;2023-08-17T05:13:10;20.40;99.90
1411;DHT22;700;51.906;8.404;2023-08-17T05:18:10;20.60;99.90
1411;DHT22;700;51.906;8.404;2023-08-17T05:23:11;20.50;99.90
1411;DHT22;700;51.906;8.404;2023-08-17T05:28:14;20.80;99.90
1411;DHT22;700;51.906;8.404;2023-08-17T05:33:14;20.70;99.90
1411;DHT22;700;51.906;8.404;2023-08-17T05:38:15;20.80;99.90
1411;DHT22;700;51.906;8.404;2023-08-17T05:43:15;20.80;99.90
1411;DHT22;700;51.906;8.404;2023-08-17T05:48:19;20.80;99.90
1411;DHT22;700;51.906;8.404;2023-08-17T05:53:21;20.90;99.90
1411;DHT22;700;51.906;8.404;2023-08-17T05:58:23;21.00;99.90
1411;DHT22;700;51.906;8.404;2023-08-17T06:03:24;20.80;99.90
1411;DHT22;700;51.906;8.404;2023-08-17T06:08:25;21.00;99.90
1411;DHT22;700;51.906;8.404;2023-08-17T06:13:25;21.10;99.90
1411;DHT22;700;51.906;8.404;2023-08-17T06:18:29;21.30;99.90
1411;DHT22;700;51.906;8.404;2023-08-17T06:23:32;21.30;99.90
1411;DHT22;700;51.906;8.404;2023-08-17T06:28:33;21.40;99.90
1411;DHT22;700;51.906;8.404;2023-08-17T06:33:36;21.50;99.90
1411;DHT22;700;51.906;8.404;2023-08-17T06:38:37;21.30;99.90
1411;DHT22;700;51.906;8.404;2023-08-17T06:43:40;21.30;99.90
1411;DHT22;700;51.906;8.404;2023-08-17T06:48:43;21.30;99.90
1411;DHT22;700;51.906;8.404;2023-08-17T06:53:44;21.40;99.90
1411;DHT22;700;51.906;8.404;2023-08-17T06:58:46;21.50;99.90
1411;DHT22;700;51.906;8.404;2023-08-17T07:03:47;21.90;99.90
1411;DHT22;700;51.906;8.404;2023-08-17T07:08:48;22.10;99.90
1411;DHT22;700;51.906;8.404;2023-08-17T07:13:51;22.30;99.90
1411;DHT22;700;51.906;8.404;2023-08-17T07:18:51;22.50;99.90
1411;DHT22;700;51.906;8.404;2023-08-17T07:23:56;22.50;99.90
1411;DHT22;700;51.906;8.404;2023-08-17T07:28:57;22.50;99.90
1411;DHT22;700;51.906;8.404;2023-08-17T07:34:00;22.70;99.90
1411;DHT22;700;51.906;8.404;2023-08-17T07:39:03;22.80;99.90
1411;DHT22;700;51.906;8.404;2023-08-17T07:44:05;22.70;99.90
1411;DHT22;700;51.906;8.404;2023-08-17T07:49:08;22.70;99.90
1411;DHT22;700;51.906;8.404;2023-08-17T07:54:10;22.70;99.90
1411;DHT22;700;51.906;8.404;2023-08-17T07:59:10;22.60;99.90
1411;DHT22;700;51.906;8.404;2023-08-17T08:04:11;22.40;99.90
1411;DHT22;700;51.906;8.404;2023-08-17T08:09:12;22.50;99.90
1411;DHT22;700;51.906;8.404;2023-08-17T08:14:15;22.50;99.90
1411;DHT22;700;51.906;8.404;2023-08-17T08:19:18;22.50;99.90
1411;DHT22;700;51.906;8.404;2023-08-17T08:24:18;22.70;99.90
1411;DHT22;700;51.906;8.404;2023-08-17T08:29:19;22.60;99.90
1411;DHT22;700;51.906;8.404;2023-08-17T08:34:20;22.80;99.90
1411;DHT22;700;51.906;8.404;2023-08-17T08:39:25;22.70;99.90
1411;DHT22;700;51.906;8.404;2023-08-17T08:44:26;22.70;99.90
1411;DHT22;700;51.906;8.404;2023-08-17T08:49:28;22.60;99.90
1411;DHT22;700;51.906;8.404;2023-08-17T08:54:31;22.90;99.90
1411;DHT22;700;51.906;8.404;2023-08-17T08:59:35;22.90;99.90
1411;DHT22;700;51.906;8.404;2023-08-17T09:04:36;22.80;99.90
1411;DHT22;700;51.906;8.404;2023-08-17T09:09:38;22.90;99.90
1411;DHT22;700;51.906;8.404;2023-08-17T09:14:42;23.10;99.90
1411;DHT22;700;51.906;8.404;2023-08-17T09:19:47;23.30;99.90
1411;DHT22;700;51.906;8.404;2023-08-17T09:24:48;23.30;99.90
1411;DHT22;700;51.906;8.404;2023-08-17T09:29:51;23.30;99.90
1411;DHT22;700;51.906;8.404;2023-08-17T09:34:51;23.30;99.90
1411;DHT22;700;51.906;8.404;2023-08-17T09:39:53;23.50;99.90
1411;DHT22;700;51.906;8.404;2023-08-17T09:44:57;23.40;99.90
1411;DHT22;700;51.906;8.404;2023-08-17T09:50:05;23.50;99.90
1411;DHT22;700;51.906;8.404;2023-08-17T09:55:07;23.50;99.90
1411;DHT22;700;51.906;8.404;2023-08-17T10:00:13;23.40;99.90
1411;DHT22;700;51.906;8.404;2023-08-17T10:05:18;23.40;99.90
1411;DHT22;700;51.906;8.404;2023-08-17T10:10:26;23.60;99.90
1411;DHT22;700;51.906;8.404;2023-08-17T10:15:33;23.50;99.90
1411;DHT22;700;51.906;8.404;2023-08-17T10:20:34;23.50;99.90
1411;DHT22;700;51.906;8.404;2023-08-17T10:25:37;23.60;99.90
1411;DHT22;700;51.906;8.404;2023-08-17T10:30:39;23.70;99.90
1411;DHT22;700;51.906;8.404;2023-08-17T10:35:42;23.40;99.90
1411;DHT22;700;51.906;8.404;2023-08-17T10:41:40;23.80;99.90
1411;DHT22;700;51.906;8.404;2023-08-17T10:46:16;23.90;99.90
1411;DHT22;700;51.906;8.404;2023-08-17T10:51:23;23.80;99.90
1411;DHT22;700;51.906;8.404;2023-08-17T10:56:27;23.90;99.90
1411;DHT22;700;51.906;8.404;2023-08-17T11:01:36;23.90;99.90
1411;DHT22;700;51.906;8.404;2023-08-17T11:06:37;23.90;99.90
1411;DHT22;700;51.906;8.404;2023-08-17T11:11:40;23.70;99.90
1411;DHT22;700;51.906;8.404;2023-08-17T11:16:41;23.80;99.90
1411;DHT22;700;51.906;8.404;2023-08-17T11:21:45;23.80;99.90
1411;DHT22;700;51.906;8.404;2023-08-17T11:26:48;23.90;99.90
1411;DHT22;700;51.906;8.404;2023-08-17T11:31:50;23.90;99.90
1411;DHT22;700;51.906;8.404;2023-08-17T11:36:51;23.90;99.90
1411;DHT22;700;51.906;8.404;2023-08-17T11:41:53;24.00;99.90
1411;DHT22;700;51.906;8.404;2023-08-17T11:46:54;24.10;99.90
1411;DHT22;700;51.906;8.404;2023-08-17T11:51:57;24.00;99.90
1411;DHT22;700;51.906;8.404;2023-08-17T11:56:57;23.90;99.90
1411;DHT22;700;51.906;8.404;2023-08-17T12:02:01;23.90;99.90
1411;DHT22;700;51.906;8.404;2023-08-17T12:07:01;23.90;99.90
1411;DHT22;700;51.906;8.404;2023-08-17T12:12:03;24.00;99.90
1411;DHT22;700;51.906;8.404;2023-08-17T12:17:04;24.10;99.90
1411;DHT22;700;51.906;8.404;2023-08-17T12:22:04;24.30;99.90
1411;DHT22;700;51.906;8.404;2023-08-17T12:27:06;24.10;99.90
1411;DHT22;700;51.906;8.404;2023-08-17T12:32:07;24.10;99.90
1411;DHT22;700;51.906;8.404;2023-08-17T12:37:11;24.10;99.90
1411;DHT22;700;51.906;8.404;2023-08-17T12:42:11;24.20;99.90
1411;DHT22;700;51.906;8.404;2023-08-17T12:47:14;24.20;99.90
1411;DHT22;700;51.906;8.404;2023-08-17T12:52:15;24.40;99.90
1411;DHT22;700;51.906;8.404;2023-08-17T12:57:18;24.40;99.90
1411;DHT22;700;51.906;8.404;2023-08-17T13:02:20;24.90;99.90
1411;DHT22;700;51.906;8.404;2023-08-17T13:07:23;25.30;99.90
1411;DHT22;700;51.906;8.404;2023-08-17T13:12:23;25.20;99.90
1411;DHT22;700;51.906;8.404;2023-08-17T13:17:29;25.00;99.90
1411;DHT22;700;51.906;8.404;2023-08-17T13:22:32;25.10;99.90
1411;DHT22;700;51.906;8.404;2023-08-17T13:27:33;24.90;99.90
1411;DHT22;700;51.906;8.404;2023-08-17T13:32:34;24.90;99.90
1411;DHT22;700;51.906;8.404;2023-08-17T13:37:37;24.80;99.90
1411;DHT22;700;51.906;8.404;2023-08-17T13:42:37;24.90;99.90
1411;DHT22;700;51.906;8.404;2023-08-17T13:47:38;25.00;99.90
1411;DHT22;700;51.906;8.404;2023-08-17T13:52:38;24.90;99.90
1411;DHT22;700;51.906;8.404;2023-08-17T13:57:41;24.90;99.90
1411;DHT22;700;51.906;8.404;2023-08-17T14:02:47;25.00;99.90
1411;DHT22;700;51.906;8.404;2023-08-17T14:07:48;25.10;99.90
1411;DHT22;700;51.906;8.404;2023-08-17T14:12:49;25.30;99.90
1411;DHT22;700;51.906;8.404;2023-08-17T14:17:51;25.20;99.90
1411;DHT22;700;51.906;8.404;2023-08-17T14:22:55;25.00;99.90
1411;DHT22;700;51.906;8.404;2023-08-17T14:27:56;25.10;99.90
1411;DHT22;700;51.906;8.404;2023-08-17T14:32:57;25.30;99.90
1411;DHT22;700;51.906;8.404;2023-08-17T14:37:58;25.40;99.90
1411;DHT22;700;51.906;8.404;2023-08-17T14:43:01;25.50;99.90
1411;DHT22;700;51.906;8.404;2023-08-17T14:48:05;25.50;99.90
1411;DHT22;700;51.906;8.404;2023-08-17T14:53:05;25.40;99.90
1411;DHT22;700;51.906;8.404;2023-08-17T14:58:07;25.20;99.90
1411;DHT22;700;51.906;8.404;2023-08-17T15:03:07;25.10;99.90
1411;DHT22;700;51.906;8.404;2023-08-17T15:08:10;25.20;99.90
1411;DHT22;700;51.906;8.404;2023-08-17T15:13:14;25.10;99.90
1411;DHT22;700;51.906;8.404;2023-08-17T15:18:15;25.10;99.90
1411;DHT22;700;51.906;8.404;2023-08-17T15:23:15;25.00;99.90
1411;DHT22;700;51.906;8.404;2023-08-17T15:28:16;25.10;99.90
1411;DHT22;700;51.906;8.404;2023-08-17T15:33:19;25.00;99.90
1411;DHT22;700;51.906;8.404;2023-08-17T15:38:20;25.10;99.90
1411;DHT22;700;51.906;8.404;2023-08-17T15:43:21;25.10;99.90
1411;DHT22;700;51.906;8.404;2023-08-17T15:48:21;25.20;99.90
1411;DHT22;700;51.906;8.404;2023-08-17T15:53:22;25.20;99.90
1411;DHT22;700;51.906;8.404;2023-08-17T15:58:23;25.20;99.90
1411;DHT22;700;51.906;8.404;2023-08-17T16:03:25;25.20;99.90
1411;DHT22;700;51.906;8.404;2023-08-17T16:08:28;25.10;99.90
1411;DHT22;700;51.906;8.404;2023-08-17T16:13:29;24.90;99.90
1411;DHT22;700;51.906;8.404;2023-08-17T16:18:32;24.80;99.90
1411;DHT22;700;51.906;8.404;2023-08-17T16:23:35;24.60;99.90
1411;DHT22;700;51.906;8.404;2023-08-17T16:28:36;24.40;99.90
1411;DHT22;700;51.906;8.404;2023-08-17T16:33:36;24.10;99.90
1411;DHT22;700;51.906;8.404;2023-08-17T16:38:42;24.10;99.90
1411;DHT22;700;51.906;8.404;2023-08-17T16:43:43;24.00;99.90
1411;DHT22;700;51.906;8.404;2023-08-17T16:48:44;23.70;99.90
1411;DHT22;700;51.906;8.404;2023-08-17T16:53:44;23.50;99.90
1411;DHT22;700;51.906;8.404;2023-08-17T16:58:52;23.40;99.90
1411;DHT22;700;51.906;8.404;2023-08-17T17:03:53;23.10;99.90
1411;DHT22;700;51.906;8.404;2023-08-17T17:08:53;23.00;99.90
1411;DHT22;700;51.906;8.404;2023-08-17T17:13:56;22.80;99.90
1411;DHT22;700;51.906;8.404;2023-08-17T17:18:57;22.70;99.90
1411;DHT22;700;51.906;8.404;2023-08-17T17:23:58;22.70;99.90
1411;DHT22;700;51.906;8.404;2023-08-17T17:29:01;22.60;99.90
1411;DHT22;700;51.906;8.404;2023-08-17T17:34:04;22.60;99.90
1411;DHT22;700;51.906;8.404;2023-08-17T17:39:05;22.40;99.90
1411;DHT22;700;51.906;8.404;2023-08-17T17:44:08;22.20;99.90
1411;DHT22;700;51.906;8.404;2023-08-17T17:49:08;22.30;99.90
1411;DHT22;700;51.906;8.404;2023-08-17T17:54:09;22.10;99.90
1411;DHT22;700;51.906;8.404;2023-08-17T17:59:12;22.20;99.90
1411;DHT22;700;51.906;8.404;2023-08-17T18:04:15;22.00;99.90
1411;DHT22;700;51.906;8.404;2023-08-17T18:09:16;22.10;99.90
1411;DHT22;700;51.906;8.404;2023-08-17T18:14:16;22.10;99.90
1411;DHT22;700;51.906;8.404;2023-08-17T18:19:19;22.20;99.90
1411;DHT22;700;51.906;8.404;2023-08-17T18:24:22;22.10;99.90
1411;DHT22;700;51.906;8.404;2023-08-17T18:29:27;22.20;99.90
1411;DHT22;700;51.906;8.404;2023-08-17T18:34:28;22.10;99.90
1411;DHT22;700;51.906;8.404;2023-08-17T18:39:29;21.90;99.90
1411;DHT22;700;51.906;8.404;2023-08-17T18:44:29;21.90;99.90
1411;DHT22;700;51.906;8.404;2023-08-17T18:49:30;22.00;99.90
1411;DHT22;700;51.906;8.404;2023-08-17T18:54:32;21.70;99.90
1411;DHT22;700;51.906;8.404;2023-08-17T18:59:36;21.80;99.90
1411;DHT22;700;51.906;8.404;2023-08-17T19:04:36;21.90;99.90
1411;DHT22;700;51.906;8.404;2023-08-17T19:09:37;21.90;99.90
1411;DHT22;700;51.906;8.404;2023-08-17T19:14:37;21.70;99.90
1411;DHT22;700;51.906;8.404;2023-08-17T19:19:39;21.50;99.90
1411;DHT22;700;51.906;8.404;2023-08-17T19:24:40;21.60;99.90
1411;DHT22;700;51.906;8.404;2023-08-17T19:29:43;21.40;99.90
1411;DHT22;700;51.906;8.404;2023-08-17T19:34:43;21.30;99.90
1411;DHT22;700;51.906;8.404;2023-08-17T19:39:44;21.60;99.90
1411;DHT22;700;51.906;8.404;2023-08-17T19:44:47;21.80;99.90
1411;DHT22;700;51.906;8.404;2023-08-17T19:49:52;21.80;99.90
1411;DHT22;700;51.906;8.404;2023-08-17T19:54:55;21.60;99.90
1411;DHT22;700;51.906;8.404;2023-08-17T19:59:56;21.50;99.90
1411;DHT22;700;51.906;8.404;2023-08-17T20:04:56;21.50;99.90
1411;DHT22;700;51.906;8.404;2023-08-17T20:09:58;21.20;99.90
1411;DHT22;700;51.906;8.404;2023-08-17T20:15:01;21.30;99.90
1411;DHT22;700;51.906;8.404;2023-08-17T20:20:04;21.30;99.90
1411;DHT22;700;51.906;8.404;2023-08-17T20:25:11;21.30;99.90
1411;DHT22;700;51.906;8.404;2023-08-17T20:30:13;21.40;99.90
1411;DHT22;700;51.906;8.404;2023-08-17T20:35:14;21.50;99.90
1411;DHT22;700;51.906;8.404;2023-08-17T20:40:14;21.40;99.90
1411;DHT22;700;51.906;8.404;2023-08-17T20:45:19;21.30;99.90
1411;DHT22;700;51.906;8.404;2023-08-17T20:50:20;21.50;99.90
1411;DHT22;700;51.906;8.404;2023-08-17T20:55:20;21.30;99.90
1411;DHT22;700;51.906;8.404;2023-08-17T21:00:22;21.30;99.90
1411;DHT22;700;51.906;8.404;2023-08-17T21:05:25;21.40;99.90
1411;DHT22;700;51.906;8.404;2023-08-17T21:10:26;21.40;99.90
1411;DHT22;700;51.906;8.404;2023-08-17T21:15:29;21.40;99.90
1411;DHT22;700;51.906;8.404;2023-08-17T21:20:30;21.60;99.90
1411;DHT22;700;51.906;8.404;2023-08-17T21:25:32;21.60;99.90
1411;DHT22;700;51.906;8.404;2023-08-17T21:30:33;21.60;99.90
1411;DHT22;700;51.906;8.404;2023-08-17T21:35:36;21.50;99.90
1411;DHT22;700;51.906;8.404;2023-08-17T21:40:39;21.50;99.90
1411;DHT22;700;51.906;8.404;2023-08-17T21:45:42;21.50;99.90
1411;DHT22;700;51.906;8.404;2023-08-17T21:50:42;21.50;99.90
1411;DHT22;700;51.906;8.404;2023-08-17T21:55:52;21.50;99.90
1411;DHT22;700;51.906;8.404;2023-08-17T22:00:53;21.50;99.90
1411;DHT22;700;51.906;8.404;2023-08-17T22:05:54;21.30;99.90
1411;DHT22;700;51.906;8.404;2023-08-17T22:10:57;21.50;99.90
1411;DHT22;700;51.906;8.404;2023-08-17T22:15:57;21.50;99.90
1411;DHT22;700;51.906;8.404;2023-08-17T22:21:06;21.40;99.90
1411;DHT22;700;51.906;8.404;2023-08-17T22:26:10;21.50;99.90
1411;DHT22;700;51.906;8.404;2023-08-17T22:31:13;21.50;99.90
1411;DHT22;700;51.906;8.404;2023-08-17T22:36:14;21.40;99.90
1411;DHT22;700;51.906;8.404;2023-08-17T22:41:17;21.50;99.90
1411;DHT22;700;51.906;8.404;2023-08-17T22:46:20;21.50;99.90
1411;DHT22;700;51.906;8.404;2023-08-17T22:51:21;21.40;99.90
1411;DHT22;700;51.906;8.404;2023-08-17T22:56:22;21.30;99.90
1411;DHT22;700;51.906;8.404;2023-08-17T23:01:25;21.30;99.90
1411;DHT22;700;51.906;8.404;2023-08-17T23:06:26;21.20;99.90
1411;DHT22;700;51.906;8.404;2023-08-17T23:11:27;21.30;99.90
1411;DHT22;700;51.906;8.404;2023-08-17T23:16:27;21.20;99.90
1411;DHT22;700;51.906;8.404;2023-08-17T23:21:30;21.30;99.90
1411;DHT22;700;51.906;8.404;2023-08-17T23:26:33;21.30;99.90
1411;DHT22;700;51.906;8.404;2023-08-17T23:31:34;21.40;99.90
1411;DHT22;700;51.906;8.404;2023-08-17T23:36:35;21.30;99.90
1411;DHT22;700;51.906;8.404;2023-08-17T23:41:38;21.30;99.90
1411;DHT22;700;51.906;8.404;2023-08-17T23:46:39;21.30;99.90
1411;DHT22;700;51.906;8.404;2023-08-17T23:51:39;21.30;99.90
1411;DHT22;700;51.906;8.404;2023-08-17T23:56:41;21.10;99.90
